Time;durP1;ratioP1;P1;durP2;ratioP2;P2;SDS_P1;SDS_P2;PMS_P1;PMS_P2;Temp;Humidity;BMP_temperature;BMP_pressure;BME280_temperature;BME280_humidity;BME280_pressure;Samples;Min_cycle;Max_cycle;Signal;HPM_P1;HPM_P2
2022/12/26 00:02:07;;;;;;;25.98;16.55;;;;;;;10.24;100.00;101024.94;4988374;28;20029;-70
2022/12/26 00:04:33;;;;;;;30.80;17.63;;;;;;;10.24;100.00;101025.78;4987000;28;20469;-69
2022/12/26 00:06:58;;;;;;;27.40;17.25;;;;;;;10.31;100.00;101036.16;4987935;28;20062;-67
2022/12/26 00:09:23;;;;;;;26.67;16.20;;;;;;;10.27;100.00;101032.75;4987195;28;20066;-63
2022/12/26 00:11:49;;;;;;;29.17;18.35;;;;;;;10.35;100.00;101038.66;4990958;28;20030;-68
2022/12/26 00:14:15;;;;;;;27.92;16.60;;;;;;;10.36;100.00;101039.53;5011501;28;20112;-69
2022/12/26 00:16:41;;;;;;;30.63;16.80;;;;;;;10.41;100.00;101042.03;4993461;28;20030;-63
2022/12/26 00:19:07;;;;;;;29.77;17.60;;;;;;;10.36;100.00;101047.41;5011071;28;20084;-68
2022/12/26 00:21:33;;;;;;;26.50;16.63;;;;;;;10.39;100.00;101044.69;4994272;28;20034;-60
2022/12/26 00:23:59;;;;;;;27.45;17.48;;;;;;;10.44;100.00;101048.03;5011868;28;20036;-67
2022/12/26 00:26:26;;;;;;;30.80;18.77;;;;;;;10.36;100.00;101055.31;4993269;28;20413;-70
2022/12/26 00:28:53;;;;;;;27.95;18.33;;;;;;;10.37;100.00;101062.31;4991541;28;20381;-68
2022/12/26 00:31:20;;;;;;;27.63;18.48;;;;;;;10.34;100.00;101052.72;4990910;28;20037;-68
2022/12/26 00:33:46;;;;;;;31.33;19.42;;;;;;;10.33;100.00;101050.97;4991366;28;20089;-69
2022/12/26 00:36:15;;;;;;;32.72;20.60;;;;;;;10.35;100.00;101056.22;4991873;28;20101;-66
2022/12/26 00:38:41;;;;;;;34.83;20.48;;;;;;;10.42;100.00;101049.00;4992048;28;20035;-68
2022/12/26 00:41:08;;;;;;;34.50;22.02;;;;;;;10.32;100.00;101046.63;4991479;28;20437;-71
2022/12/26 00:43:33;;;;;;;34.65;20.13;;;;;;;10.26;100.00;101041.53;4991641;28;20401;-68
2022/12/26 00:45:59;;;;;;;36.25;21.20;;;;;;;10.30;100.00;101056.34;4990869;28;20030;-69
2022/12/26 00:48:24;;;;;;;32.95;19.73;;;;;;;10.33;100.00;101056.25;4991186;28;20038;-61
2022/12/26 00:50:50;;;;;;;33.30;20.50;;;;;;;10.35;100.00;101054.44;4991978;28;20018;-70
2022/12/26 00:53:15;;;;;;;35.70;20.50;;;;;;;10.29;100.00;101051.16;4991644;28;20018;-69
2022/12/26 00:55:41;;;;;;;36.33;21.10;;;;;;;10.28;100.00;101047.63;4991661;28;20025;-68
2022/12/26 00:58:06;;;;;;;30.50;19.63;;;;;;;10.27;100.00;101050.31;4991483;28;20646;-65
2022/12/26 01:00:32;;;;;;;32.25;19.98;;;;;;;10.30;100.00;101051.06;4991260;28;20031;-68
2022/12/26 01:02:57;;;;;;;29.42;18.80;;;;;;;10.29;100.00;101036.19;4991232;28;20029;-66
2022/12/26 01:05:22;;;;;;;32.22;19.90;;;;;;;10.27;100.00;101027.50;4991049;28;20034;-65
2022/12/26 01:07:48;;;;;;;29.08;18.38;;;;;;;10.25;100.00;101026.66;4991789;28;20049;-64
2022/12/26 01:10:13;;;;;;;28.60;18.85;;;;;;;10.19;100.00;101037.38;4988949;28;20045;-65
2022/12/26 01:12:39;;;;;;;31.25;19.40;;;;;;;10.21;100.00;101038.19;4989934;28;20033;-68
2022/12/26 01:15:05;;;;;;;31.60;18.48;;;;;;;10.11;100.00;101045.47;4990234;28;20026;-63
2022/12/26 01:17:31;;;;;;;32.78;19.75;;;;;;;10.14;100.00;101047.19;5009667;28;20022;-68
2022/12/26 01:19:56;;;;;;;34.38;20.20;;;;;;;10.14;100.00;101034.03;5007991;28;20032;-67
2022/12/26 01:22:23;;;;;;;31.48;19.40;;;;;;;10.22;100.00;101042.53;5008069;28;20022;-69
2022/12/26 01:24:49;;;;;;;33.42;20.38;;;;;;;10.19;100.00;101032.97;5008729;28;20104;-65
2022/12/26 01:27:15;;;;;;;31.75;19.15;;;;;;;10.24;100.00;101041.59;4991803;28;20100;-69
2022/12/26 01:29:40;;;;;;;32.83;20.08;;;;;;;10.23;100.00;101037.25;5009077;28;20448;-60
2022/12/26 01:32:05;;;;;;;30.50;19.35;;;;;;;10.24;100.00;101036.31;4989064;28;20385;-64
2022/12/26 01:34:31;;;;;;;35.95;20.65;;;;;;;10.20;100.00;101033.81;4987140;28;20073;-68
2022/12/26 01:36:56;;;;;;;31.85;19.67;;;;;;;10.16;100.00;101034.81;4989400;28;20058;-68
2022/12/26 01:39:22;;;;;;;30.98;19.20;;;;;;;10.05;100.00;101040.41;4989528;28;20030;-68
2022/12/26 01:41:48;;;;;;;36.35;20.27;;;;;;;9.97;100.00;101043.25;4989790;28;20126;-66
2022/12/26 01:44:50;;;;;;;31.10;18.13;;;;;;;9.96;100.00;101047.66;4989415;28;20031;-66
2022/12/26 01:47:16;;;;;;;31.10;17.27;;;;;;;9.90;100.00;101046.97;4990074;28;20117;-68
2022/12/26 01:49:43;;;;;;;32.30;19.30;;;;;;;9.83;100.00;101052.41;4988741;28;20105;-62
2022/12/26 01:52:14;;;;;;;32.08;18.25;;;;;;;9.78;100.00;101049.00;4971197;28;20037;-68
2022/12/26 01:54:40;;;;;;;32.92;19.63;;;;;;;9.77;100.00;101051.69;4971305;28;20097;-66
2022/12/26 01:57:10;;;;;;;31.90;18.00;;;;;;;9.66;100.00;101052.00;4987999;28;20030;-61
2022/12/26 01:59:37;;;;;;;34.72;17.95;;;;;;;9.65;100.00;101052.88;4972374;28;20026;-68
2022/12/26 02:02:03;;;;;;;32.63;18.33;;;;;;;9.68;100.00;101056.31;4972001;28;20037;-65
2022/12/26 02:07:17;;;;;;;28.90;18.20;;;;;;;9.69;100.00;101049.28;4974511;28;20042;-64
2022/12/26 02:09:42;;;;;;;30.45;18.13;;;;;;;9.75;100.00;101048.25;4951629;28;1068687;-67
2022/12/26 02:12:14;;;;;;;29.67;18.17;;;;;;;9.76;100.00;101045.59;4971991;28;20485;-68
2022/12/26 02:14:39;;;;;;;30.05;18.15;;;;;;;9.79;100.00;101047.25;5050221;23;20046;-65
2022/12/26 02:17:06;;;;;;;31.83;18.20;;;;;;;9.77;100.00;101044.66;4970491;28;20420;-69
2022/12/26 02:19:46;;;;;;;30.50;18.75;;;;;;;9.75;100.00;101048.25;4937196;28;20090;-70
2022/12/26 02:22:26;;;;;;;31.67;18.85;;;;;;;9.70;100.00;101035.22;4956347;28;20497;-67
2022/12/26 02:25:14;;;;;;;28.70;18.20;;;;;;;9.57;100.00;101032.91;4969593;28;20531;-70
2022/12/26 02:27:43;;;;;;;28.95;18.33;;;;;;;9.56;100.00;101028.56;4952444;28;20027;-66
2022/12/26 02:30:35;;;;;;;29.17;18.33;;;;;;;9.51;100.00;101022.53;4970366;28;20185;-71
2022/12/26 02:33:15;;;;;;;34.88;20.27;;;;;;;9.49;100.00;101024.38;4969635;28;20042;-70
2022/12/26 02:35:49;;;;;;;31.10;20.23;;;;;;;9.53;100.00;101014.63;4952470;28;20034;-69
2022/12/26 02:38:30;;;;;;;32.63;20.50;;;;;;;9.52;100.00;101021.66;4969337;28;20023;-71
2022/12/26 02:41:12;;;;;;;31.35;20.85;;;;;;;9.55;100.00;101032.09;4936668;28;20230;-70
2022/12/26 02:43:56;;;;;;;34.50;19.50;;;;;;;9.55;100.00;101042.63;4951884;28;20027;-70
2022/12/26 02:47:04;;;;;;;29.23;18.90;;;;;;;9.61;100.00;101037.19;4952032;28;20038;-70
2022/12/26 03:13:09;;;;;;;28.98;19.50;;;;;;;9.71;100.00;101037.81;4969308;28;20023;-71
2022/12/26 03:15:12;;;;;;;23.25;17.10;;;;;;;9.68;100.00;101037.00;4954548;28;20089;-70
2022/12/26 03:17:46;;;;;;;25.73;17.92;;;;;;;9.58;100.00;101034.63;4951974;28;20019;-66
2022/12/26 03:20:15;;;;;;;25.75;17.80;;;;;;;9.50;100.00;101041.88;4951072;28;20049;-72
2022/12/26 03:22:53;;;;;;;26.88;18.63;;;;;;;9.46;100.00;101050.75;4969074;28;20035;-71
2022/12/26 03:28:33;;;;;;;27.08;17.50;;;;;;;9.33;100.00;101040.53;4949533;29;20509;-70
2022/12/26 03:31:01;;;;;;;22.95;16.77;;;;;;;9.22;100.00;101030.28;4931691;29;20035;-70
2022/12/26 03:36:33;;;;;;;25.98;17.38;;;;;;;9.14;100.00;101023.50;4949379;29;20829;-70
2022/12/26 03:39:12;;;;;;;23.50;16.38;;;;;;;9.16;100.00;101022.56;4949529;29;20070;-71
2022/12/26 04:20:38;;;;;;;16.58;11.15;;;;;;;8.92;100.00;101037.16;4972579;28;20038;-70
2022/12/26 04:45:56;;;;;;;13.13;8.88;;;;;;;8.72;100.00;101009.59;4971002;28;20101;-71
2022/12/26 04:51:05;;;;;;;15.43;9.13;;;;;;;8.74;100.00;101007.81;4971839;28;20127;-72
2022/12/26 04:53:30;;;;;;;16.23;8.90;;;;;;;8.84;100.00;100996.16;4971988;28;20477;-72
2022/12/26 04:55:56;;;;;;;14.18;8.13;;;;;;;8.87;100.00;101012.75;4971866;28;20493;-71
2022/12/26 04:58:23;;;;;;;24.00;8.20;;;;;;;8.82;100.00;101021.59;4971805;28;20366;-72
2022/12/26 05:00:49;;;;;;;14.18;7.90;;;;;;;8.78;100.00;101005.94;4972402;28;20031;-71
2022/12/26 05:11:30;;;;;;;10.48;6.20;;;;;;;8.87;100.00;101004.88;4956153;28;20445;-69
2022/12/26 05:13:56;;;;;;;9.63;6.22;;;;;;;8.81;100.00;101004.13;4970822;28;20086;-73
2022/12/26 05:30:18;;;;;;;12.10;5.28;;;;;;;9.18;100.00;101012.03;4972317;28;20049;-66
2022/12/26 05:35:27;;;;;;;6.60;4.60;;;;;;;9.25;100.00;101015.34;4952167;29;20114;-72
2022/12/26 05:37:53;;;;;;;5.70;4.40;;;;;;;9.23;100.00;101021.50;4934730;29;20023;-72
2022/12/26 05:40:18;;;;;;;11.25;4.50;;;;;;;9.28;100.00;101010.88;4952552;29;20035;-71
2022/12/26 05:42:44;;;;;;;5.63;3.92;;;;;;;9.23;100.00;101021.50;4934995;29;20024;-71
2022/12/26 05:45:09;;;;;;;8.32;4.13;;;;;;;9.17;100.00;101008.50;4983774;28;20924;-71
2022/12/26 05:47:35;;;;;;;7.03;4.47;;;;;;;9.20;100.00;101010.19;4989415;28;20108;-71
2022/12/26 05:50:00;;;;;;;5.78;4.07;;;;;;;9.07;100.00;101025.41;4989657;28;20027;-73
2022/12/26 05:52:25;;;;;;;9.52;4.28;;;;;;;9.13;100.00;101013.88;4972642;28;20030;-72
2022/12/26 05:54:51;;;;;;;7.03;4.30;;;;;;;9.08;100.00;101012.25;4990378;28;20058;-70
2022/12/26 05:57:16;;;;;;;7.35;4.30;;;;;;;9.08;100.00;101011.38;4990695;28;20113;-72
2022/12/26 05:59:41;;;;;;;10.73;4.40;;;;;;;9.02;100.00;101016.78;4990716;28;20045;-72
2022/12/26 06:02:07;;;;;;;11.57;4.30;;;;;;;8.95;100.00;101013.44;4973912;28;20058;-73
2022/12/26 06:04:33;;;;;;;5.20;4.25;;;;;;;8.92;100.00;101010.88;4970236;28;20104;-72
2022/12/26 06:06:58;;;;;;;8.25;3.85;;;;;;;9.00;100.00;101008.91;4952907;28;20033;-72
2022/12/26 06:09:24;;;;;;;13.27;6.10;;;;;;;8.93;100.00;101017.84;4970589;28;20035;-71
2022/12/26 06:11:49;;;;;;;8.63;4.45;;;;;;;8.95;100.00;101019.56;4970296;28;20031;-70
2022/12/26 06:14:15;;;;;;;9.00;4.90;;;;;;;8.91;100.00;101017.06;4970234;28;20047;-71
2022/12/26 06:16:40;;;;;;;16.23;5.50;;;;;;;8.96;100.00;101025.66;4952078;28;20473;-73
2022/12/26 06:19:06;;;;;;;7.65;4.63;;;;;;;9.01;100.00;101036.09;4969790;28;20022;-70
2022/12/26 06:21:31;;;;;;;10.52;5.07;;;;;;;8.96;100.00;101034.44;4953276;28;20034;-73
2022/12/26 06:23:56;;;;;;;12.35;5.20;;;;;;;8.97;100.00;101037.91;4970654;28;20157;-73
2022/12/26 06:26:22;;;;;;;7.07;4.85;;;;;;;9.00;100.00;101029.09;4970458;28;20059;-73
2022/12/26 06:28:47;;;;;;;7.85;5.07;;;;;;;9.00;100.00;101031.72;4970787;28;20035;-73
2022/12/26 06:31:19;;;;;;;10.18;4.95;;;;;;;9.01;100.00;101029.06;4969754;28;20023;-73
2022/12/26 06:33:44;;;;;;;6.40;4.45;;;;;;;9.11;100.00;101032.31;4968701;28;20437;-72
2022/12/26 06:36:13;;;;;;;10.60;4.57;;;;;;;9.24;100.00;101032.88;4969300;28;20035;-70
2022/12/26 06:38:38;;;;;;;13.50;5.10;;;;;;;9.36;100.00;101021.19;4952895;28;20030;-71
2022/12/26 06:41:05;;;;;;;13.23;4.53;;;;;;;9.38;100.00;101036.91;4969992;28;20027;-72
2022/12/26 06:43:30;;;;;;;7.93;4.18;;;;;;;9.47;100.00;101010.38;4970340;28;20027;-71
2022/12/26 06:45:57;;;;;;;12.50;4.43;;;;;;;9.34;100.00;101017.75;4966275;28;20031;-72
2022/12/26 06:48:22;;;;;;;8.65;4.72;;;;;;;9.43;100.00;101012.25;4964230;28;20717;-70
2022/12/26 06:50:48;;;;;;;7.38;3.75;;;;;;;9.51;100.00;101029.59;4942579;28;20047;-71
2022/12/26 06:53:13;;;;;;;10.57;3.83;;;;;;;9.48;100.00;101035.78;4961784;28;20050;-69
2022/12/26 06:55:38;;;;;;;7.72;3.47;;;;;;;9.51;100.00;101033.06;4956382;28;20098;-71
2022/12/26 06:58:04;;;;;;;9.07;4.35;;;;;;;9.48;100.00;101025.25;4945862;28;20031;-69
2022/12/26 07:00:29;;;;;;;9.60;3.55;;;;;;;9.67;100.00;101028.28;4963235;28;20038;-70
2022/12/26 07:02:54;;;;;;;9.20;3.22;;;;;;;9.65;100.00;101026.56;4960761;28;20094;-71
2022/12/26 07:05:20;;;;;;;7.05;3.25;;;;;;;9.71;100.00;101026.41;4943538;28;20039;-71
2022/12/26 07:07:52;;;;;;;9.45;3.63;;;;;;;9.66;100.00;101025.69;4960220;28;20544;-71
2022/12/26 07:10:20;;;;;;;5.72;3.35;;;;;;;9.63;100.00;101037.13;4963328;28;20078;-71
2022/12/26 07:12:46;;;;;;;5.28;3.30;;;;;;;9.64;100.00;101027.47;4964016;28;20035;-70
2022/12/26 07:15:12;;;;;;;9.40;3.20;;;;;;;9.60;100.00;101032.81;4944390;28;20174;-70
2022/12/26 07:17:37;;;;;;;9.38;3.20;;;;;;;9.63;100.00;101017.88;4959865;28;20139;-70
2022/12/26 07:20:06;;;;;;;4.95;2.65;;;;;;;9.65;100.00;101002.91;4960025;28;20031;-72
2022/12/26 07:22:32;;;;;;;11.18;3.25;;;;;;;9.65;100.00;101018.69;4960477;28;20487;-73
2022/12/26 07:24:57;;;;;;;8.65;3.05;;;;;;;9.60;100.00;101011.78;4962286;28;20628;-72
2022/12/26 07:27:23;;;;;;;5.55;2.50;;;;;;;9.69;100.00;101023.81;4960235;28;20536;-72
2022/12/26 07:29:48;;;;;;;5.60;2.60;;;;;;;9.80;100.00;101035.81;4962492;28;20039;-70
2022/12/26 07:32:14;;;;;;;8.13;3.05;;;;;;;9.75;100.00;101027.19;4959383;28;20038;-72
2022/12/26 07:34:40;;;;;;;12.38;3.17;;;;;;;9.68;100.00;101026.50;4942637;28;20038;-70
2022/12/26 07:37:05;;;;;;;4.43;2.22;;;;;;;9.83;100.00;101031.34;4942480;28;20485;-71
2022/12/26 07:39:31;;;;;;;7.38;2.67;;;;;;;9.86;100.00;101041.78;4961750;28;20026;-71
2022/12/26 07:41:56;;;;;;;6.68;2.83;;;;;;;9.72;100.00;101033.38;4958569;28;20035;-75
2022/12/26 07:44:22;;;;;;;5.32;2.47;;;;;;;9.70;100.00;101048.38;4961622;28;20028;-74
2022/12/26 07:46:47;;;;;;;11.00;2.95;;;;;;;9.66;100.00;101055.47;4958193;28;20050;-72
2022/12/26 07:49:13;;;;;;;8.45;2.60;;;;;;;9.67;100.00;101032.66;4961050;28;20069;-70
2022/12/26 07:51:38;;;;;;;4.63;2.72;;;;;;;9.68;100.00;101050.19;4959183;28;20686;-71
2022/12/26 07:54:04;;;;;;;9.32;2.83;;;;;;;9.75;100.00;101043.84;4961236;28;20038;-72
2022/12/26 07:56:31;;;;;;;8.35;2.95;;;;;;;9.64;100.00;101040.63;4962273;28;20347;-66
2022/12/26 07:58:56;;;;;;;6.63;2.53;;;;;;;9.71;100.00;101048.34;4962931;28;20090;-72
2022/12/26 08:01:21;;;;;;;8.40;3.28;;;;;;;9.68;100.00;101052.81;4967890;28;20039;-70
2022/12/26 08:03:48;;;;;;;8.82;3.80;;;;;;;9.70;100.00;101056.28;4967797;28;20034;-70
2022/12/26 08:06:13;;;;;;;8.57;3.03;;;;;;;9.83;100.00;101062.06;4968341;28;20105;-69
2022/12/26 08:08:39;;;;;;;8.38;3.35;;;;;;;9.75;100.00;101064.88;4968291;28;20398;-70
2022/12/26 08:11:06;;;;;;;10.65;3.22;;;;;;;9.94;100.00;101061.78;4968185;28;20023;-70
2022/12/26 08:13:32;;;;;;;8.85;3.25;;;;;;;9.89;100.00;101071.53;4965016;28;20153;-72
2022/12/26 08:15:57;;;;;;;14.23;3.85;;;;;;;9.90;100.00;101083.81;4968141;28;20105;-71
2022/12/26 08:18:24;;;;;;;10.60;3.08;;;;;;;9.95;100.00;101098.59;4966864;28;20031;-69
2022/12/26 08:20:49;;;;;;;14.60;4.03;;;;;;;9.86;100.00;101126.03;4968764;28;20038;-70
2022/12/26 08:23:15;;;;;;;7.50;3.30;;;;;;;9.95;100.00;101142.47;4967890;28;20027;-67
2022/12/26 08:25:40;;;;;;;11.52;3.30;;;;;;;9.92;100.00;101132.00;4963729;28;20031;-69
2022/12/26 08:28:06;;;;;;;8.63;3.33;;;;;;;9.83;100.00;101135.75;4951873;28;20109;-69
2022/12/26 08:30:31;;;;;;;7.60;2.60;;;;;;;9.64;100.00;101144.13;4967995;28;20066;-68
2022/12/26 08:32:56;;;;;;;6.85;2.75;;;;;;;9.66;100.00;101142.31;4967911;28;20037;-69
2022/12/26 08:35:22;;;;;;;6.68;2.30;;;;;;;9.67;100.00;101151.94;4972226;28;20034;-68
2022/12/26 08:37:47;;;;;;;6.85;1.90;;;;;;;9.67;100.00;101144.06;4972645;28;20082;-68
2022/12/26 08:40:12;;;;;;;9.27;2.60;;;;;;;9.60;100.00;101155.59;4972125;28;20038;-69
2022/12/26 08:42:38;;;;;;;6.30;2.30;;;;;;;9.65;100.00;101151.09;4972178;28;20027;-69
2022/12/26 08:45:03;;;;;;;8.63;2.17;;;;;;;9.43;100.00;101159.53;4972211;28;20072;-68
2022/12/26 08:47:29;;;;;;;7.32;1.40;;;;;;;9.48;100.00;101160.28;4970900;28;20046;-69
2022/12/26 08:49:54;;;;;;;8.57;1.67;;;;;;;9.39;100.00;101167.53;4969491;28;20023;-69
2022/12/26 08:52:19;;;;;;;7.75;1.65;;;;;;;9.28;100.00;101176.53;4953747;28;20097;-68
2022/12/26 08:54:44;;;;;;;5.88;1.55;;;;;;;9.34;100.00;101175.53;4971657;28;20501;-69
2022/12/26 08:57:10;;;;;;;8.43;1.67;;;;;;;9.38;100.00;101198.22;4970659;28;20401;-67
2022/12/26 08:59:35;;;;;;;9.57;1.80;;;;;;;9.41;100.00;101213.06;4971961;28;20065;-69
2022/12/26 09:02:00;;;;;;;8.32;1.70;;;;;;;9.42;100.00;101220.06;4970251;28;20469;-70
2022/12/26 09:04:26;;;;;;;9.48;1.92;;;;;;;9.37;100.00;101222.81;4971860;28;20368;-71
2022/12/26 09:06:51;;;;;;;15.93;1.90;;;;;;;9.44;100.00;101232.28;4953164;28;20027;-71
2022/12/26 09:09:17;;;;;;;12.13;2.55;;;;;;;9.34;100.00;101244.75;4971832;28;20078;-70
2022/12/26 09:11:42;;;;;;;21.33;2.25;;;;;;;9.44;100.00;101263.84;4970779;28;20026;-70
2022/12/26 09:14:07;;;;;;;13.38;1.95;;;;;;;9.02;100.00;101275.25;4970407;28;20125;-71
2022/12/26 09:16:41;;;;;;;19.45;2.67;;;;;;;8.84;100.00;101272.09;4952787;28;20019;-69
2022/12/26 09:19:08;;;;;;;21.33;2.83;;;;;;;8.84;100.00;101289.59;4969705;28;20027;-70
2022/12/26 09:21:33;;;;;;;16.02;2.45;;;;;;;8.76;100.00;101323.91;4956302;28;20074;-73
2022/12/26 09:24:05;;;;;;;21.45;2.25;;;;;;;8.64;100.00;101330.25;4969988;28;20066;-73
2022/12/26 09:26:30;;;;;;;12.30;3.58;;;;;;;8.52;100.00;101310.28;4967699;28;20042;-69
2022/12/26 09:28:55;;;;;;;11.18;1.52;;;;;;;8.51;100.00;101334.84;4972199;28;20034;-71
2022/12/26 09:31:23;;;;;;;11.85;1.92;;;;;;;8.58;100.00;101338.25;4951787;28;20023;-71
2022/12/26 09:33:49;;;;;;;11.77;1.70;;;;;;;8.62;100.00;101346.94;4969073;28;20493;-73
2022/12/26 09:36:17;;;;;;;6.80;2.47;;;;;;;8.59;100.00;101358.38;4951114;28;20019;-71
2022/12/26 09:38:43;;;;;;;12.70;2.10;;;;;;;8.53;100.00;101363.69;4951670;28;20085;-71
2022/12/26 09:41:49;;;;;;;11.38;1.50;;;;;;;8.29;100.00;101398.22;4935720;28;20086;-68
2022/12/26 09:44:32;;;;;;;10.27;1.95;;;;;;;8.30;100.00;101381.56;4965482;28;20031;-68
2022/12/26 09:47:19;;;;;;;11.85;1.70;;;;;;;8.30;100.00;101378.94;4962563;28;20039;-72
2022/12/26 09:50:05;;;;;;;15.70;1.88;;;;;;;8.23;100.00;101385.19;4969022;28;20066;-69
2022/12/26 09:52:53;;;;;;;11.18;1.88;;;;;;;8.34;100.00;101398.16;4951733;28;20377;-70
2022/12/26 09:55:55;;;;;;;14.00;1.73;;;;;;;8.20;100.00;101408.84;4966790;28;20552;-71
2022/12/26 09:58:35;;;;;;;13.70;2.28;;;;;;;8.06;100.00;101404.66;4964151;28;20035;-69
2022/12/26 10:01:06;;;;;;;7.95;1.67;;;;;;;8.03;100.00;101412.59;4949981;28;20038;-69
2022/12/26 10:03:38;;;;;;;10.07;1.65;;;;;;;8.06;100.00;101419.53;4950977;28;20424;-67
2022/12/26 10:06:18;;;;;;;20.95;2.45;;;;;;;8.01;100.00;101414.34;4951831;28;20019;-70
2022/12/26 10:09:12;;;;;;;11.43;1.90;;;;;;;8.07;100.00;101414.28;4949919;28;20137;-69
2022/12/26 10:11:59;;;;;;;7.43;1.80;;;;;;;8.11;100.00;101416.84;4955245;28;20041;-67
2022/12/26 10:14:50;;;;;;;13.23;2.03;;;;;;;8.22;100.00;101425.47;4951303;28;20043;-69
2022/12/26 10:17:43;;;;;;;11.98;1.73;;;;;;;8.31;100.00;101433.19;4951182;28;20878;-69
2022/12/26 10:20:27;;;;;;;19.23;2.33;;;;;;;8.35;100.00;101428.75;4966595;28;20034;-70
2022/12/26 10:23:10;;;;;;;10.43;2.40;;;;;;;8.28;100.00;101422.72;4967834;28;20034;-70
2022/12/26 10:25:50;;;;;;;11.73;2.17;;;;;;;8.32;100.00;101437.56;4966561;28;20070;-69
2022/12/26 10:28:27;;;;;;;10.35;2.00;;;;;;;8.51;100.00;101442.53;4951187;28;20043;-69
2022/12/26 10:30:54;;;;;;;11.95;2.22;;;;;;;8.55;100.00;101433.72;4967742;28;20046;-70
2022/12/26 10:33:39;;;;;;;19.98;2.55;;;;;;;8.65;100.00;101459.84;4951108;28;20034;-70
2022/12/26 10:36:05;;;;;;;14.52;2.13;;;;;;;8.62;100.00;101458.16;4966669;28;20042;-69
2022/12/26 10:38:39;;;;;;;13.73;2.40;;;;;;;8.67;100.00;101451.06;4966685;28;20473;-70
2022/12/26 10:41:13;;;;;;;16.35;1.67;;;;;;;8.52;100.00;101449.50;4950653;28;20033;-68
2022/12/26 10:43:43;;;;;;;10.85;1.83;;;;;;;8.53;100.00;101442.50;4967917;28;20129;-70
2022/12/26 10:46:33;;;;;;;9.75;2.00;;;;;;;8.28;100.00;101466.50;4967717;28;20384;-68
2022/12/26 10:48:58;;;;;;;7.93;1.88;;;;;;;8.26;100.00;101471.78;4967920;28;20045;-68
2022/12/26 10:51:24;;;;;;;7.32;1.27;;;;;;;8.28;100.00;101462.09;4968451;28;20486;-68
2022/12/26 10:53:51;;;;;;;13.68;2.35;;;;;;;8.29;100.00;101469.13;4968788;28;20138;-68
2022/12/26 10:56:17;;;;;;;10.45;1.92;;;;;;;8.38;100.00;101475.13;4969449;28;20022;-69
2022/12/26 10:58:43;;;;;;;8.23;1.67;;;;;;;8.31;100.00;101476.97;4951633;28;20117;-69
2022/12/26 11:01:28;;;;;;;8.00;1.52;;;;;;;8.33;100.00;101475.16;4951557;28;20096;-70
2022/12/26 11:03:55;;;;;;;7.13;1.67;;;;;;;8.24;100.00;101477.94;4949012;29;20034;-70
2022/12/26 11:06:24;;;;;;;10.00;1.67;;;;;;;8.22;100.00;101491.09;4956027;28;20085;-67
2022/12/26 11:08:50;;;;;;;11.10;1.88;;;;;;;8.21;100.00;101498.09;4969037;28;20484;-69
2022/12/26 11:11:22;;;;;;;7.18;1.98;;;;;;;8.19;100.00;101494.59;4967819;28;20109;-69
2022/12/26 11:13:53;;;;;;;11.88;1.70;;;;;;;8.41;100.00;101509.22;4950514;28;20055;-66
2022/12/26 11:16:25;;;;;;;10.15;1.48;;;;;;;8.54;100.00;101510.81;4950502;28;20038;-68
2022/12/26 11:18:51;;;;;;;9.10;1.88;;;;;;;8.50;100.00;101508.22;4949778;28;20689;-69
2022/12/26 11:21:16;;;;;;;16.77;2.55;;;;;;;8.44;99.51;101519.69;4968468;28;20010;-70
2022/12/26 11:23:41;;;;;;;10.77;1.55;;;;;;;8.41;100.00;101509.22;4968122;28;20627;-69
2022/12/26 11:26:22;;;;;;;7.13;1.88;;;;;;;8.35;100.00;101515.41;4967264;28;20022;-69
2022/12/26 11:28:47;;;;;;;8.27;1.60;;;;;;;8.30;99.65;101519.84;4964826;28;20058;-71
2022/12/26 11:31:25;;;;;;;6.40;1.27;;;;;;;8.19;99.15;101534.00;4951294;28;20081;-69
2022/12/26 11:33:51;;;;;;;6.70;1.40;;;;;;;8.15;98.14;101536.66;4951090;28;20027;-68
2022/12/26 11:36:21;;;;;;;7.50;1.45;;;;;;;8.32;98.71;101558.34;4968305;28;20030;-72
2022/12/26 11:38:49;;;;;;;7.15;1.73;;;;;;;8.39;98.05;101550.38;4951429;28;20038;-69
2022/12/26 11:41:35;;;;;;;3.85;0.95;;;;;;;8.46;97.72;101559.94;4967304;28;20034;-69
2022/12/26 11:44:17;;;;;;;4.13;1.10;;;;;;;8.63;95.84;101545.69;4966410;28;20504;-68
2022/12/26 11:47:06;;;;;;;13.18;1.50;;;;;;;8.77;96.29;101548.13;4950370;28;20359;-68
2022/12/26 11:49:33;;;;;;;10.80;1.05;;;;;;;8.80;95.68;101548.09;4968187;28;20019;-70
2022/12/26 11:52:00;;;;;;;12.23;1.85;;;;;;;8.96;95.22;101546.09;4968231;28;20101;-68
2022/12/26 11:54:34;;;;;;;7.78;1.70;;;;;;;9.20;96.00;101543.94;4968187;28;20026;-70
2022/12/26 11:57:23;;;;;;;11.98;1.67;;;;;;;9.19;94.91;101552.75;4951187;28;20031;-68
2022/12/26 11:59:49;;;;;;;;;;;;;;;9.19;93.80;101553.63;4951293;28;20054;-68
2022/12/26 12:02:17;;;;;;;5.68;1.45;;;;;;;9.02;94.65;101548.63;4949977;28;20277;-70
2022/12/26 12:04:44;;;;;;;11.35;1.60;;;;;;;8.97;96.25;101546.06;4951170;28;20546;-70
2022/12/26 12:07:29;;;;;;;4.78;1.77;;;;;;;9.31;94.77;101547.28;4950656;28;20054;-66
2022/12/26 12:10:01;;;;;;;3.33;1.10;;;;;;;9.63;93.69;101559.91;4953063;28;20043;-70
2022/12/26 12:12:32;;;;;;;8.90;1.35;;;;;;;9.86;89.99;101562.97;4972408;28;20082;-66
2022/12/26 12:15:20;;;;;;;13.20;1.95;;;;;;;9.90;87.86;101560.28;4970263;28;20077;-69
2022/12/26 12:18:14;;;;;;;4.25;0.95;;;;;;;9.96;87.00;101557.50;4971846;28;20027;-68
2022/12/26 12:21:15;;;;;;;10.98;1.73;;;;;;;9.89;87.67;101566.41;4970281;28;20050;-72
2022/12/26 12:23:57;;;;;;;4.25;1.00;;;;;;;9.70;87.39;101561.50;4970381;28;20101;-70
2022/12/26 12:26:30;;;;;;;9.68;1.27;;;;;;;9.37;88.58;101567.34;4969859;28;20037;-70
2022/12/26 12:28:58;;;;;;;6.55;0.80;;;;;;;9.15;88.73;101569.47;4972410;28;20085;-72
2022/12/26 12:31:57;;;;;;;5.68;1.00;;;;;;;9.75;88.08;101585.13;4971729;28;20125;-70
2022/12/26 12:34:31;;;;;;;5.68;1.17;;;;;;;10.24;84.90;101591.19;4969515;28;20076;-70
2022/12/26 12:37:33;;;;;;;10.35;1.50;;;;;;;10.72;83.47;101573.53;4971905;28;20033;-68
2022/12/26 12:40:19;;;;;;;9.38;1.48;;;;;;;10.37;83.37;101581.25;4918289;28;20199;-69
2022/12/26 12:42:56;;;;;;;6.82;1.45;;;;;;;9.95;86.98;101592.63;4968356;28;20030;-71
2022/12/26 12:45:28;;;;;;;9.25;1.20;;;;;;;9.90;87.23;101595.34;4951829;28;20038;-67
2022/12/26 12:48:26;;;;;;;5.35;1.40;;;;;;;9.72;87.16;101586.00;4953599;28;20054;-68
2022/12/26 12:50:51;;;;;;;4.68;1.20;;;;;;;9.99;87.39;101607.47;4969467;28;20058;-71
2022/12/26 12:53:26;;;;;;;6.18;1.20;;;;;;;10.08;88.54;101593.25;4971398;28;20109;-72
2022/12/26 12:56:02;;;;;;;7.80;1.15;;;;;;;10.03;89.04;101611.78;4971046;28;20070;-70
2022/12/26 12:59:03;;;;;;;6.43;1.13;;;;;;;10.08;88.13;101609.91;4954374;28;20015;-72
2022/12/26 13:01:33;;;;;;;7.75;1.40;;;;;;;9.88;87.61;101606.81;4937385;28;20038;-73
2022/12/26 13:04:05;;;;;;;4.15;1.05;;;;;;;9.82;86.37;101608.63;4970018;28;20026;-71
2022/12/26 13:06:37;;;;;;;7.15;1.05;;;;;;;9.48;88.13;101619.75;4952764;28;20026;-74
2022/12/26 13:09:16;;;;;;;4.68;1.08;;;;;;;9.07;88.51;101623.03;4952930;28;20051;-72
2022/12/26 13:11:47;;;;;;;7.80;1.13;;;;;;;8.79;89.56;101620.78;4954037;28;20489;-73
2022/12/26 13:14:16;;;;;;;5.30;0.98;;;;;;;8.65;89.96;101639.38;4970870;28;20047;-72
2022/12/26 13:16:50;;;;;;;7.70;0.95;;;;;;;8.51;90.71;101634.28;4970542;28;20029;-73
2022/12/26 13:19:22;;;;;;;6.05;1.40;;;;;;;8.25;91.41;101638.06;4971258;28;20030;-70
2022/12/26 13:21:49;;;;;;;4.03;0.85;;;;;;;8.02;92.81;101635.69;4953848;28;20027;-70
2022/12/26 13:24:30;;;;;;;7.82;1.20;;;;;;;7.70;92.23;101638.63;4951097;28;20027;-71
2022/12/26 13:27:10;;;;;;;5.80;1.00;;;;;;;7.64;93.65;101643.03;4969473;28;20035;-74
2022/12/26 13:29:44;;;;;;;10.40;0.98;;;;;;;7.60;93.96;101631.72;4952804;28;20489;-72
2022/12/26 13:32:20;;;;;;;12.20;1.48;;;;;;;7.74;93.22;101635.97;4968770;28;20041;-70
2022/12/26 13:34:45;;;;;;;4.22;1.00;;;;;;;7.87;92.72;101650.72;4953366;28;20026;-71
2022/12/26 13:37:37;;;;;;;9.30;1.27;;;;;;;8.08;91.34;101646.13;4970036;28;20567;-73